Terminal Aerodrome Forecast
Issued by NWS

Home | Current Version | Previous Version | Text Only | Print | Product List | Glossary On
Versions: 1 2 3 4 5 6 7 8 9 10 11 12 13 14 15
052
FTUS46 KSEW 100648 RRA
TAFBFI
TAF
KBFI 100648Z 1007/1106 13005KT P6SM BKN250
     FM101200 14006KT P6SM OVC120
     FM101800 17006KT P6SM OVC060
     FM102000 17006KT P6SM OVC045
      TEMPO 1020/1024 -RA=

USA.gov is the U.S. government's official web portal to all federal, state and local government web resources and services.